Time;durP1;ratioP1;P1;durP2;ratioP2;P2;SDS_P1;SDS_P2;PMS_P1;PMS_P2;Temp;Humidity;BMP_temperature;BMP_pressure;BME280_temperature;BME280_humidity;BME280_pressure;Samples;Min_cycle;Max_cycle;Signal;HPM_P1;HPM_P2
2024/03/10 00:00:25;;;;;;;9.32;7.05;;;12.60;86.30;;;;;;4975509;28;20030;-75
2024/03/10 00:02:52;;;;;;;9.45;6.75;;;12.60;86.30;;;;;;4974878;28;20026;-75
2024/03/10 00:05:19;;;;;;;10.15;7.45;;;12.60;86.30;;;;;;4992688;28;20515;-75
2024/03/10 00:07:46;;;;;;;10.25;7.30;;;12.60;86.30;;;;;;4992542;28;20100;-75
2024/03/10 00:10:17;;;;;;;9.68;7.30;;;12.60;86.30;;;;;;4975408;28;20513;-75
2024/03/10 00:12:47;;;;;;;;;;;12.50;86.30;;;;;;4992962;28;20027;-75
2024/03/10 00:15:12;;;;;;;9.55;7.22;;;12.60;86.30;;;;;;4992716;28;19905;-75
2024/03/10 00:17:38;;;;;;;9.75;7.30;;;12.60;86.30;;;;;;4992509;28;20026;-75
2024/03/10 00:20:04;;;;;;;10.52;7.72;;;12.60;86.30;;;;;;4992594;28;20106;-75
2024/03/10 00:22:30;;;;;;;10.27;7.65;;;12.60;86.30;;;;;;4992560;28;20030;-76
2024/03/10 00:24:55;;;;;;;10.60;7.70;;;12.50;86.20;;;;;;4975114;28;20040;-75
2024/03/10 00:27:21;;;;;;;9.65;7.20;;;12.60;86.20;;;;;;4992697;28;20030;-75
2024/03/10 00:29:47;;;;;;;10.65;8.00;;;12.60;86.30;;;;;;4992256;28;20026;-75
2024/03/10 00:32:12;;;;;;;11.02;8.20;;;12.60;86.30;;;;;;4991962;28;20037;-75
2024/03/10 00:34:39;;;;;;;9.55;7.30;;;12.50;86.20;;;;;;4974689;28;20058;-75
2024/03/10 00:37:05;;;;;;;10.05;7.45;;;12.60;86.30;;;;;;4974698;28;20022;-75
2024/03/10 00:39:31;;;;;;;9.68;7.53;;;12.60;86.30;;;;;;4992016;28;20404;-78
2024/03/10 00:41:57;;;;;;;10.07;7.53;;;12.60;86.30;;;;;;4991656;28;20294;-75
2024/03/10 00:44:22;;;;;;;10.40;7.63;;;12.60;86.30;;;;;;4991904;28;20035;-75
2024/03/10 00:46:48;;;;;;;9.90;7.10;;;12.60;86.30;;;;;;4974792;28;20022;-77
2024/03/10 00:49:14;;;;;;;9.70;7.10;;;12.60;86.30;;;;;;4992237;28;20050;-77
2024/03/10 00:51:41;;;;;;;11.15;7.50;;;12.60;86.40;;;;;;4974653;28;20395;-75
2024/03/10 00:54:09;;;;;;;10.02;7.00;;;12.60;86.40;;;;;;4991649;28;20026;-77
2024/03/10 00:56:35;;;;;;;9.77;7.03;;;12.60;86.40;;;;;;4974550;28;20034;-77
2024/03/10 00:59:01;;;;;;;10.10;7.70;;;12.60;86.40;;;;;;4974838;28;20389;-78
2024/03/10 01:01:26;;;;;;;10.85;7.78;;;12.60;86.40;;;;;;4992290;28;20108;-79
2024/03/10 01:03:52;;;;;;;10.48;7.90;;;12.60;86.40;;;;;;4991971;28;20034;-77
2024/03/10 01:06:18;;;;;;;10.35;7.57;;;12.60;86.50;;;;;;4974665;28;20450;-77
2024/03/10 01:08:43;;;;;;;10.27;7.72;;;12.60;86.50;;;;;;4991809;28;20088;-77
2024/03/10 01:11:10;;;;;;;9.73;7.05;;;12.60;86.50;;;;;;4974571;28;20077;-77
2024/03/10 01:13:36;;;;;;;9.90;7.07;;;12.60;86.50;;;;;;4991789;28;20030;-77
2024/03/10 01:16:03;;;;;;;9.90;7.47;;;12.60;86.50;;;;;;4974708;28;20569;-78
2024/03/10 01:18:29;;;;;;;10.32;7.70;;;12.50;86.50;;;;;;4992287;28;20081;-77
2024/03/10 01:20:54;;;;;;;10.15;7.40;;;12.50;86.50;;;;;;4992305;28;20030;-77
2024/03/10 01:23:20;;;;;;;9.95;7.32;;;12.60;86.50;;;;;;4991691;28;20030;-78
2024/03/10 01:25:45;;;;;;;10.35;7.60;;;12.60;86.50;;;;;;4991871;28;20498;-77
2024/03/10 01:28:11;;;;;;;10.80;7.90;;;12.60;86.50;;;;;;4974235;28;20376;-78
2024/03/10 01:30:39;;;;;;;10.00;7.68;;;12.60;86.50;;;;;;4974409;28;20502;-77
2024/03/10 01:33:05;;;;;;;10.30;7.82;;;12.60;86.50;;;;;;4991367;28;20028;-77
2024/03/10 01:35:30;;;;;;;9.27;7.22;;;12.50;86.50;;;;;;4991346;28;20049;-77
2024/03/10 01:37:56;;;;;;;10.10;7.32;;;12.50;86.50;;;;;;4973851;28;20054;-77
2024/03/10 01:40:21;;;;;;;10.68;7.57;;;12.60;86.50;;;;;;4973834;28;20065;-77
2024/03/10 01:42:56;;;;;;;10.18;7.65;;;12.60;86.50;;;;;;4991257;28;20065;-78
2024/03/10 01:45:22;;;;;;;9.60;7.13;;;12.50;86.50;;;;;;4973812;28;20026;-77
2024/03/10 01:47:49;;;;;;;10.35;7.75;;;12.60;86.50;;;;;;4973628;28;20026;-77
2024/03/10 01:50:16;;;;;;;9.73;7.47;;;12.50;86.50;;;;;;4991282;28;20108;-77
2024/03/10 01:52:42;;;;;;;10.40;7.63;;;12.60;86.50;;;;;;4973137;28;20077;-78
2024/03/10 01:55:11;;;;;;;9.90;7.20;;;12.50;86.50;;;;;;4974103;28;20423;-77
2024/03/10 01:57:38;;;;;;;10.45;7.40;;;12.50;86.50;;;;;;4973494;28;20062;-75
2024/03/10 02:00:05;;;;;;;9.90;7.60;;;12.50;86.50;;;;;;4973318;28;20069;-77
2024/03/10 02:02:31;;;;;;;10.13;7.43;;;12.60;86.50;;;;;;4990781;28;20026;-78
2024/03/10 02:04:58;;;;;;;10.23;7.70;;;12.50;86.40;;;;;;4990797;28;20033;-78
2024/03/10 02:07:25;;;;;;;10.88;7.88;;;12.50;86.40;;;;;;4991089;28;20031;-77
2024/03/10 02:09:51;;;;;;;10.63;7.88;;;12.60;86.40;;;;;;4991339;28;20033;-78
2024/03/10 02:12:17;;;;;;;10.50;7.65;;;12.50;86.40;;;;;;4990724;28;20105;-77
2024/03/10 02:14:55;;;;;;;9.50;7.03;;;12.50;86.40;;;;;;4973753;28;20031;-77
2024/03/10 02:17:21;;;;;;;9.98;7.55;;;12.50;86.40;;;;;;4973458;28;20030;-77
2024/03/10 02:19:46;;;;;;;10.18;7.45;;;12.50;86.50;;;;;;4973402;28;20053;-77
2024/03/10 02:22:12;;;;;;;10.05;7.38;;;12.60;86.60;;;;;;4973299;28;20069;-77
2024/03/10 02:24:43;;;;;;;9.75;6.90;;;12.50;86.50;;;;;;4990952;28;20479;-77
2024/03/10 02:27:15;;;;;;;;;;;12.50;86.50;;;;;;4991834;28;20097;-77
2024/03/10 02:29:59;;;;;;;10.00;7.40;;;12.50;86.50;;;;;;4973564;28;19910;-77
2024/03/10 02:48:50;;;;;;;9.68;7.30;;;12.50;86.50;;;;;;4991423;28;20092;-77
2024/03/10 02:51:17;;;;;;;9.82;7.40;;;12.50;86.50;;;;;;4973692;28;20391;-77
2024/03/10 02:53:43;;;;;;;11.10;7.90;;;12.50;86.60;;;;;;4990570;28;20041;-77
2024/03/10 02:56:08;;;;;;;10.18;7.20;;;12.50;86.50;;;;;;4991188;28;20031;-78
2024/03/10 02:58:34;;;;;;;10.18;7.60;;;12.60;86.60;;;;;;4991040;28;20109;-77
2024/03/10 03:00:59;;;;;;;10.63;7.90;;;12.50;86.60;;;;;;4973675;28;20031;-77
2024/03/10 03:03:25;;;;;;;9.23;7.05;;;12.50;86.60;;;;;;4990656;28;20084;-75
2024/03/10 03:05:51;;;;;;;10.95;8.05;;;12.50;86.60;;;;;;4994085;28;20514;-77
2024/03/10 03:08:17;;;;;;;10.73;7.70;;;12.50;86.60;;;;;;4994520;28;20029;-77
2024/03/10 03:10:42;;;;;;;11.10;7.90;;;12.50;86.60;;;;;;4976433;28;20462;-78
2024/03/10 03:13:09;;;;;;;10.57;7.70;;;12.50;86.60;;;;;;4976451;28;20061;-77
2024/03/10 03:15:34;;;;;;;10.50;7.88;;;12.50;86.60;;;;;;4994356;28;20238;-77
2024/03/10 03:18:00;;;;;;;9.75;7.20;;;12.50;87.00;;;;;;4976823;28;20502;-77
2024/03/10 03:20:26;;;;;;;10.50;7.72;;;12.50;86.60;;;;;;4976370;28;20022;-77
2024/03/10 03:22:52;;;;;;;10.07;7.38;;;12.50;86.60;;;;;;4993823;28;20030;-78
2024/03/10 03:25:17;;;;;;;10.55;7.30;;;12.50;86.60;;;;;;4976448;28;20033;-78
2024/03/10 03:27:50;;;;;;;9.45;7.43;;;12.50;86.60;;;;;;4976449;28;20109;-77
2024/03/10 03:30:16;;;;;;;10.10;7.50;;;12.50;86.60;;;;;;4993905;28;20029;-78
2024/03/10 03:32:42;;;;;;;11.98;8.07;;;12.50;86.60;;;;;;4993439;28;20026;-78
2024/03/10 03:35:10;;;;;;;10.52;7.78;;;12.50;86.60;;;;;;4993877;28;20030;-78
2024/03/10 03:37:36;;;;;;;10.30;7.53;;;12.50;86.60;;;;;;4993501;28;20034;-78
2024/03/10 03:40:05;;;;;;;10.07;7.65;;;12.40;86.60;;;;;;4976427;28;20403;-77
2024/03/10 03:42:30;;;;;;;9.68;7.43;;;12.50;86.70;;;;;;5010030;28;20080;-77
2024/03/10 03:44:56;;;;;;;10.50;7.68;;;12.50;86.60;;;;;;4995385;28;20033;-77
2024/03/10 03:47:21;;;;;;;10.75;7.70;;;12.50;86.60;;;;;;5012947;28;20030;-77
2024/03/10 03:49:47;;;;;;;11.00;7.93;;;12.50;86.60;;;;;;5013446;28;20026;-78
2024/03/10 03:52:12;;;;;;;10.20;7.45;;;12.50;86.60;;;;;;5012633;28;20032;-77
2024/03/10 03:54:39;;;;;;;10.13;7.75;;;12.40;86.60;;;;;;5013281;28;20109;-77
2024/03/10 03:57:06;;;;;;;10.65;7.68;;;12.50;86.60;;;;;;5012718;28;20533;-77
2024/03/10 03:59:32;;;;;;;11.07;8.30;;;12.50;86.60;;;;;;4995017;28;20120;-77
2024/03/10 04:01:58;;;;;;;10.80;8.05;;;12.40;86.60;;;;;;5012685;28;20105;-77
2024/03/10 04:04:24;;;;;;;10.55;7.75;;;12.50;86.60;;;;;;5012732;28;20022;-78
2024/03/10 04:06:49;;;;;;;10.95;8.32;;;12.50;86.70;;;;;;5013017;28;20033;-77
2024/03/10 04:09:14;;;;;;;10.77;7.70;;;12.50;86.60;;;;;;4995267;28;20026;-77
2024/03/10 04:11:40;;;;;;;11.18;8.13;;;12.50;86.60;;;;;;4995280;28;20018;-78
2024/03/10 04:14:07;;;;;;;10.88;8.23;;;12.50;86.60;;;;;;5012619;28;20030;-77
2024/03/10 04:16:33;;;;;;;10.20;7.38;;;12.50;86.70;;;;;;5012304;28;20033;-77
2024/03/10 04:18:58;;;;;;;10.63;7.68;;;12.50;86.60;;;;;;4994696;28;20053;-78
2024/03/10 04:21:24;;;;;;;10.95;8.35;;;12.50;86.70;;;;;;5012396;28;20482;-77
2024/03/10 04:23:51;;;;;;;11.10;8.10;;;12.50;86.70;;;;;;5011945;28;20505;-78
2024/03/10 04:26:18;;;;;;;10.65;7.82;;;12.50;86.70;;;;;;5012526;28;20037;-77
2024/03/10 04:28:43;;;;;;;10.55;7.80;;;12.50;86.70;;;;;;4994884;28;20125;-77
2024/03/10 04:31:09;;;;;;;11.10;8.00;;;12.50;86.70;;;;;;5012343;28;20514;-77
2024/03/10 04:33:35;;;;;;;10.48;7.80;;;12.50;86.70;;;;;;5012039;28;20069;-77
2024/03/10 04:36:00;;;;;;;10.38;7.45;;;12.40;86.60;;;;;;5012197;28;20032;-77
2024/03/10 04:38:26;;;;;;;10.50;7.53;;;12.50;86.70;;;;;;4994242;28;20040;-78
2024/03/10 04:40:52;;;;;;;10.05;7.47;;;12.50;86.70;;;;;;5012034;28;20033;-77
2024/03/10 04:43:17;;;;;;;10.68;8.07;;;12.40;86.60;;;;;;4994359;28;20032;-77
2024/03/10 04:45:43;;;;;;;10.80;8.15;;;12.50;86.70;;;;;;4994737;28;20022;-77
2024/03/10 04:48:10;;;;;;;11.23;8.30;;;12.50;86.70;;;;;;4994277;28;20022;-78
2024/03/10 04:50:36;;;;;;;10.77;7.90;;;12.50;86.70;;;;;;4994482;28;20030;-77
2024/03/10 04:53:01;;;;;;;10.48;7.90;;;12.40;86.60;;;;;;4994477;28;20423;-77
2024/03/10 04:55:27;;;;;;;10.95;8.18;;;12.50;86.60;;;;;;5012347;28;20066;-78
2024/03/10 04:57:55;;;;;;;11.80;8.80;;;12.50;86.70;;;;;;4994306;28;20057;-77
2024/03/10 05:00:21;;;;;;;10.57;7.70;;;12.50;86.70;;;;;;5012140;28;20034;-78
2024/03/10 05:02:47;;;;;;;11.23;8.25;;;12.50;86.70;;;;;;5011720;28;20433;-77
2024/03/10 05:05:15;;;;;;;11.27;8.27;;;12.50;86.70;;;;;;5011852;28;20037;-79
2024/03/10 05:07:41;;;;;;;10.77;7.82;;;12.50;86.70;;;;;;4994299;28;20026;-77
2024/03/10 05:10:07;;;;;;;10.30;7.88;;;12.40;86.70;;;;;;4994112;28;20556;-77
2024/03/10 05:12:33;;;;;;;10.48;7.70;;;12.50;86.70;;;;;;5011922;28;20341;-77
2024/03/10 05:14:59;;;;;;;11.48;8.68;;;12.40;86.70;;;;;;4994432;28;20105;-77
2024/03/10 05:17:24;;;;;;;10.60;7.97;;;12.40;86.70;;;;;;5011656;28;20104;-77
2024/03/10 05:19:50;;;;;;;10.80;8.32;;;12.50;86.70;;;;;;4994173;28;20083;-77
2024/03/10 05:22:17;;;;;;;10.25;7.93;;;12.40;86.70;;;;;;4993760;28;20060;-77
2024/03/10 05:24:42;;;;;;;10.68;8.10;;;12.50;86.80;;;;;;4993860;28;20029;-77
2024/03/10 05:27:09;;;;;;;11.10;8.20;;;12.40;86.70;;;;;;5011035;28;20033;-78
2024/03/10 05:29:35;;;;;;;11.05;8.07;;;12.40;86.70;;;;;;4993962;28;20034;-77
2024/03/10 05:32:02;;;;;;;10.48;7.57;;;12.50;86.70;;;;;;5011182;28;20029;-77
2024/03/10 05:34:28;;;;;;;10.35;7.65;;;12.40;86.70;;;;;;5011435;28;20030;-77
2024/03/10 05:36:53;;;;;;;10.38;7.85;;;12.50;86.70;;;;;;4994057;28;20037;-78
2024/03/10 05:39:19;;;;;;;11.30;7.97;;;12.40;86.60;;;;;;5010989;28;20048;-77
2024/03/10 05:41:44;;;;;;;11.25;8.18;;;12.40;86.70;;;;;;4991670;28;20613;-77
2024/03/10 05:44:10;;;;;;;11.35;8.65;;;12.40;86.70;;;;;;5010943;28;20032;-77
2024/03/10 05:46:35;;;;;;;10.73;8.10;;;12.40;86.70;;;;;;4993374;28;20076;-77
2024/03/10 05:49:02;;;;;;;11.32;8.18;;;12.40;86.70;;;;;;4993556;28;20044;-77
2024/03/10 05:51:28;;;;;;;11.20;8.13;;;12.40;86.70;;;;;;5011336;28;20092;-77
2024/03/10 05:53:53;;;;;;;11.52;8.23;;;12.40;86.70;;;;;;4991807;28;20487;-78
2024/03/10 05:56:19;;;;;;;11.80;8.60;;;12.40;86.70;;;;;;4992954;28;20026;-77
2024/03/10 05:58:45;;;;;;;10.32;7.85;;;12.40;86.70;;;;;;4993171;28;20022;-79
2024/03/10 06:01:11;;;;;;;10.32;7.80;;;12.40;86.70;;;;;;5010776;28;20028;-77
2024/03/10 06:03:37;;;;;;;10.90;8.10;;;12.40;86.70;;;;;;5010920;28;20088;-77
2024/03/10 06:06:03;;;;;;;11.02;8.35;;;12.40;86.70;;;;;;5010766;28;20426;-77
2024/03/10 06:08:29;;;;;;;10.80;8.38;;;12.40;86.70;;;;;;4993027;28;20294;-76
2024/03/10 06:10:55;;;;;;;10.85;8.10;;;12.40;86.70;;;;;;5010676;28;20029;-78
2024/03/10 06:13:21;;;;;;;10.40;8.02;;;12.40;86.70;;;;;;4992081;28;20108;-77
2024/03/10 06:15:47;;;;;;;10.80;8.00;;;12.40;86.70;;;;;;5002697;28;20205;-79
2024/03/10 06:18:18;;;;;;;11.55;8.52;;;12.40;86.70;;;;;;4988338;28;20022;-78
2024/03/10 06:26:17;;;;;;;11.75;8.43;;;12.40;86.60;;;;;;5005850;28;20037;-78
2024/03/10 06:28:42;;;;;;;11.00;8.52;;;12.40;86.70;;;;;;5005933;28;20022;-78
2024/03/10 06:31:08;;;;;;;10.88;8.35;;;12.40;86.60;;;;;;4987690;28;20057;-78
2024/03/10 06:33:35;;;;;;;10.93;8.10;;;12.40;86.60;;;;;;4987780;28;20475;-78
2024/03/10 06:36:08;;;;;;;10.55;7.97;;;12.40;86.60;;;;;;5005964;28;20025;-79
2024/03/10 06:38:38;;;;;;;10.88;8.23;;;12.30;86.50;;;;;;5004339;28;20339;-77
2024/03/10 06:41:04;;;;;;;11.25;8.38;;;12.40;86.60;;;;;;5007975;28;20037;-78
2024/03/10 06:43:30;;;;;;;11.35;8.48;;;12.40;86.60;;;;;;5009176;28;20033;-78
2024/03/10 06:45:55;;;;;;;11.25;8.30;;;12.40;86.60;;;;;;5007963;28;20028;-78
2024/03/10 06:48:21;;;;;;;11.43;8.55;;;12.40;86.60;;;;;;5009439;28;20030;-78
2024/03/10 06:50:46;;;;;;;10.90;8.00;;;12.40;86.60;;;;;;5010550;28;20029;-78
2024/03/10 06:53:12;;;;;;;11.10;8.57;;;12.40;86.60;;;;;;5008202;28;20474;-77
2024/03/10 06:55:38;;;;;;;10.95;7.97;;;12.40;86.60;;;;;;5008537;28;20178;-79
2024/03/10 06:58:03;;;;;;;10.93;8.43;;;12.40;86.60;;;;;;5007401;28;20026;-79
2024/03/10 07:00:29;;;;;;;10.15;7.90;;;12.40;86.60;;;;;;5008495;28;20084;-78
2024/03/10 07:02:55;;;;;;;11.45;8.15;;;12.40;86.60;;;;;;5007797;28;20745;-78
2024/03/10 07:05:21;;;;;;;12.02;7.97;;;12.40;86.60;;;;;;5008024;28;20061;-78
2024/03/10 07:07:50;;;;;;;10.88;8.15;;;12.40;86.60;;;;;;5009153;28;20057;-77
2024/03/10 07:10:16;;;;;;;11.52;8.32;;;12.40;86.60;;;;;;5008174;28;20033;-78
2024/03/10 07:12:41;;;;;;;11.55;8.60;;;12.40;86.60;;;;;;5007025;28;20029;-78
2024/03/10 07:15:09;;;;;;;11.70;8.57;;;12.40;86.60;;;;;;5007534;28;20038;-78
2024/03/10 07:17:39;;;;;;;11.30;8.30;;;12.40;86.60;;;;;;5007954;28;20156;-78
2024/03/10 07:20:06;;;;;;;10.93;8.23;;;12.40;86.60;;;;;;4993595;28;20507;-78
2024/03/10 07:22:32;;;;;;;11.27;8.35;;;12.40;86.60;;;;;;4992894;28;20422;-77
2024/03/10 07:24:57;;;;;;;11.27;8.40;;;12.40;86.60;;;;;;4992657;28;20033;-78
2024/03/10 07:27:24;;;;;;;10.50;7.57;;;12.40;86.60;;;;;;5007825;28;20030;-78
2024/03/10 07:29:49;;;;;;;11.75;8.75;;;12.40;86.60;;;;;;5008520;28;20026;-78
2024/03/10 07:32:19;;;;;;;11.77;8.50;;;12.40;86.60;;;;;;4990771;28;20376;-78
2024/03/10 07:34:44;;;;;;;11.50;8.40;;;12.40;86.60;;;;;;5008355;28;20190;-78
2024/03/10 07:37:10;;;;;;;10.93;8.13;;;12.40;86.60;;;;;;5008374;28;20034;-78
2024/03/10 07:39:35;;;;;;;10.80;8.00;;;12.40;86.60;;;;;;4991209;28;20356;-78
2024/03/10 07:42:01;;;;;;;11.02;7.85;;;12.40;86.60;;;;;;4991480;28;20030;-78
2024/03/10 07:44:28;;;;;;;11.02;8.48;;;12.40;86.60;;;;;;4991578;28;20115;-77
2024/03/10 07:46:54;;;;;;;10.48;7.93;;;12.40;86.60;;;;;;4986220;28;20403;-78
2024/03/10 07:49:19;;;;;;;11.10;8.43;;;12.40;86.60;;;;;;5009925;28;20022;-76
2024/03/10 07:51:45;;;;;;;11.80;8.77;;;12.40;86.60;;;;;;5005474;28;20030;-76
2024/03/10 07:54:10;;;;;;;10.32;8.23;;;12.40;86.60;;;;;;5004848;28;20072;-76
2024/03/10 07:56:36;;;;;;;11.32;8.23;;;12.40;86.60;;;;;;4989167;28;20125;-79
2024/03/10 07:59:02;;;;;;;11.45;8.00;;;12.40;86.60;;;;;;5006753;28;20030;-76
2024/03/10 08:01:27;;;;;;;10.50;7.88;;;12.40;86.60;;;;;;4988404;28;20029;-78
2024/03/10 08:03:54;;;;;;;10.77;8.32;;;12.40;86.60;;;;;;4991316;28;20025;-77
2024/03/10 08:06:21;;;;;;;11.20;8.30;;;12.40;86.60;;;;;;5011842;28;20391;-78
2024/03/10 08:08:47;;;;;;;10.55;7.97;;;12.40;86.70;;;;;;4993569;28;20231;-78
2024/03/10 08:11:13;;;;;;;10.48;7.75;;;12.40;86.60;;;;;;5011040;28;20026;-76
2024/03/10 08:13:40;;;;;;;11.25;8.10;;;12.50;87.20;;;;;;5010262;28;20025;-78
2024/03/10 08:16:06;;;;;;;11.55;8.88;;;12.40;86.70;;;;;;4993748;28;20084;-76
2024/03/10 08:18:31;;;;;;;12.25;8.45;;;12.40;86.60;;;;;;5012004;28;20033;-78
2024/03/10 08:20:57;;;;;;;11.30;7.90;;;12.40;86.60;;;;;;5012449;28;20121;-75
2024/03/10 08:23:22;;;;;;;10.82;8.45;;;12.40;86.60;;;;;;4994665;28;20410;-79
2024/03/10 08:25:49;;;;;;;11.68;8.35;;;12.40;86.60;;;;;;4994706;28;20029;-78
2024/03/10 08:28:14;;;;;;;10.57;8.38;;;12.40;86.60;;;;;;5012957;28;20475;-77
2024/03/10 08:30:41;;;;;;;11.25;8.48;;;12.40;86.60;;;;;;4994807;28;20048;-77
2024/03/10 08:33:07;;;;;;;11.30;8.63;;;12.40;86.60;;;;;;4994601;28;20395;-77
2024/03/10 08:35:32;;;;;;;10.63;8.18;;;12.40;86.60;;;;;;5012085;28;20037;-77
2024/03/10 08:37:59;;;;;;;11.15;8.35;;;12.40;86.60;;;;;;4994975;28;20037;-78
2024/03/10 08:40:24;;;;;;;11.38;8.40;;;12.40;86.60;;;;;;5011856;28;20045;-78
2024/03/10 08:42:50;;;;;;;10.18;8.05;;;12.50;86.60;;;;;;5011980;28;20491;-78
2024/03/10 08:45:15;;;;;;;10.63;7.82;;;12.50;86.60;;;;;;5012061;28;20038;-79
2024/03/10 08:47:42;;;;;;;12.32;9.10;;;12.40;86.50;;;;;;4994464;28;20025;-78
2024/03/10 08:50:12;;;;;;;16.67;9.40;;;12.40;86.50;;;;;;4994713;28;20030;-78
2024/03/10 08:52:39;;;;;;;15.85;9.57;;;12.50;86.20;;;;;;4994337;28;20479;-77
2024/03/10 08:55:05;;;;;;;19.33;10.00;;;12.50;86.00;;;;;;5011927;28;20041;-77
2024/03/10 08:57:32;;;;;;;19.83;10.00;;;12.50;85.90;;;;;;5011991;28;20030;-78
2024/03/10 09:00:00;;;;;;;21.27;10.40;;;12.50;85.90;;;;;;5011614;28;20022;-78
2024/03/10 09:02:26;;;;;;;15.75;9.38;;;12.40;85.80;;;;;;4993597;28;20487;-78
2024/03/10 09:04:52;;;;;;;17.45;9.95;;;12.50;85.90;;;;;;5011758;28;20030;-80
2024/03/10 09:07:18;;;;;;;18.40;9.95;;;12.50;86.00;;;;;;4993991;28;20077;-79
2024/03/10 09:09:44;;;;;;;13.60;10.05;;;12.40;85.90;;;;;;5011543;28;20176;-76
2024/03/10 09:12:10;;;;;;;13.88;9.95;;;12.50;86.10;;;;;;5011386;28;20025;-78
2024/03/10 09:14:35;;;;;;;14.70;9.68;;;12.50;86.10;;;;;;4994048;28;20486;-77
2024/03/10 09:17:03;;;;;;;17.55;9.50;;;12.50;86.20;;;;;;4993732;28;20025;-75
2024/03/10 09:19:29;;;;;;;16.38;10.20;;;12.50;86.10;;;;;;5011229;28;20059;-75
2024/03/10 09:21:55;;;;;;;17.40;10.50;;;12.50;86.20;;;;;;5010770;28;20046;-78
2024/03/10 09:24:20;;;;;;;14.48;9.75;;;12.40;86.20;;;;;;5010897;28;20502;-75
2024/03/10 09:26:46;;;;;;;13.75;9.55;;;12.50;86.20;;;;;;4993248;28;20088;-78
2024/03/10 09:29:14;;;;;;;14.75;9.45;;;12.50;86.20;;;;;;5010906;28;20022;-76
2024/03/10 09:31:41;;;;;;;15.85;9.52;;;12.50;86.20;;;;;;4993036;28;20113;-77
2024/03/10 09:34:06;;;;;;;15.93;9.80;;;12.50;86.20;;;;;;5010745;28;20065;-76
2024/03/10 09:36:32;;;;;;;15.57;9.70;;;12.50;86.20;;;;;;4993072;28;20049;-75
2024/03/10 09:38:59;;;;;;;14.85;9.43;;;12.50;86.20;;;;;;5010886;28;20136;-75
2024/03/10 09:41:28;;;;;;;14.45;9.60;;;12.50;86.10;;;;;;5010870;28;20517;-76
2024/03/10 09:43:57;;;;;;;13.10;9.48;;;12.50;86.10;;;;;;5010768;28;20494;-77
2024/03/10 09:46:23;;;;;;;14.48;8.88;;;12.60;86.20;;;;;;4993002;28;20084;-80
2024/03/10 09:48:49;;;;;;;14.75;9.75;;;12.60;86.20;;;;;;4993352;28;20029;-79
2024/03/10 09:51:15;;;;;;;15.65;10.02;;;12.60;86.20;;;;;;5011280;28;20030;-80
2024/03/10 09:53:43;;;;;;;13.75;9.52;;;12.60;86.20;;;;;;4993003;28;20030;-79
2024/03/10 09:56:12;;;;;;;15.30;10.38;;;12.60;86.20;;;;;;5010742;28;20502;-80
2024/03/10 09:58:47;;;;;;;13.88;9.60;;;12.60;86.20;;;;;;4993416;28;20041;-79
2024/03/10 10:01:18;;;;;;;12.77;9.45;;;12.60;86.20;;;;;;5007822;28;20048;-79
2024/03/10 10:03:49;;;;;;;15.05;10.02;;;12.60;86.20;;;;;;5010003;28;20073;-78
2024/03/10 10:06:17;;;;;;;15.35;10.15;;;12.60;86.10;;;;;;5010438;28;20065;-80
2024/03/10 10:08:42;;;;;;;15.13;9.73;;;12.60;86.10;;;;;;4992931;28;20041;-80
2024/03/10 10:11:08;;;;;;;17.67;10.20;;;12.60;86.00;;;;;;4992846;28;20025;-80
2024/03/10 10:13:35;;;;;;;14.90;9.65;;;12.60;86.10;;;;;;5011084;28;20026;-77
2024/03/10 10:16:08;;;;;;;16.02;9.70;;;12.60;86.10;;;;;;4996915;28;20075;-79
2024/03/10 10:18:36;;;;;;;13.13;9.50;;;12.60;86.10;;;;;;5014472;28;20014;-80
2024/03/10 10:21:07;;;;;;;14.27;9.60;;;12.60;86.10;;;;;;5014507;28;20032;-78
2024/03/10 10:23:33;;;;;;;14.55;9.48;;;12.60;86.10;;;;;;4996347;28;20487;-80
2024/03/10 10:26:09;;;;;;;13.38;9.48;;;12.70;86.10;;;;;;5014496;28;20498;-80
2024/03/10 10:28:37;;;;;;;15.38;9.90;;;12.70;86.10;;;;;;4996892;28;20260;-78
2024/03/10 10:31:13;;;;;;;13.35;9.50;;;12.70;86.00;;;;;;5014568;28;20032;-79
2024/03/10 10:33:41;;;;;;;13.98;9.38;;;12.80;85.80;;;;;;5013921;28;20022;-79
2024/03/10 10:36:07;;;;;;;13.15;9.52;;;12.80;85.60;;;;;;5014266;28;20045;-78
2024/03/10 10:38:40;;;;;;;12.93;9.65;;;12.90;85.30;;;;;;4996429;28;20545;-77
2024/03/10 10:41:07;;;;;;;12.55;9.07;;;12.90;85.20;;;;;;5014536;28;20057;-79
2024/03/10 10:43:37;;;;;;;12.82;9.52;;;13.00;85.10;;;;;;5014487;28;20040;-79
2024/03/10 10:46:06;;;;;;;13.20;9.52;;;13.00;84.90;;;;;;5014362;28;20061;-77
2024/03/10 10:48:35;;;;;;;12.88;9.48;;;13.00;84.80;;;;;;4996585;28;20030;-79
2024/03/10 10:51:07;;;;;;;13.32;9.77;;;13.00;84.70;;;;;;4996570;28;20037;-79
2024/03/10 10:53:33;;;;;;;12.85;10.10;;;13.10;84.70;;;;;;5014232;28;20033;-78
2024/03/10 10:56:00;;;;;;;12.85;9.57;;;13.10;84.70;;;;;;5014397;28;20076;-79
2024/03/10 10:58:34;;;;;;;13.05;9.25;;;13.10;84.70;;;;;;5012891;28;20049;-79
2024/03/10 11:01:09;;;;;;;13.55;10.00;;;13.10;84.70;;;;;;5014158;28;20022;-78
2024/03/10 11:03:40;;;;;;;28.33;12.35;;;13.10;84.80;;;;;;5012553;28;20050;-79
2024/03/10 11:06:06;;;;;;;54.75;20.67;;;13.10;84.50;;;;;;5013447;28;20045;-79
2024/03/10 11:08:33;;;;;;;46.83;22.45;;;12.90;81.70;;;;;;4995373;28;20575;-79
2024/03/10 11:10:58;;;;;;;41.10;21.60;;;12.90;80.60;;;;;;4996135;28;20164;-79
2024/03/10 11:13:26;;;;;;;43.72;20.73;;;12.90;81.50;;;;;;5014037;28;20105;-80
2024/03/10 11:16:05;;;;;;;36.58;20.02;;;12.90;82.00;;;;;;4995769;28;20033;-79
2024/03/10 11:18:32;;;;;;;40.33;19.13;;;12.90;82.50;;;;;;5013922;28;20085;-79
2024/03/10 11:21:00;;;;;;;43.83;19.70;;;12.90;82.80;;;;;;4996385;28;20121;-79
2024/03/10 11:23:36;;;;;;;31.83;18.67;;;13.00;83.10;;;;;;5013294;28;20046;-79
2024/03/10 11:26:06;;;;;;;32.72;17.33;;;12.90;83.30;;;;;;5012547;28;20305;-79
2024/03/10 11:28:59;;;;;;;32.72;18.45;;;13.00;83.50;;;;;;4996130;28;20487;-79
2024/03/10 11:31:35;;;;;;;38.92;19.90;;;13.00;83.60;;;;;;5013301;28;20045;-79
2024/03/10 11:34:03;;;;;;;34.80;18.52;;;12.90;83.70;;;;;;5013469;28;20033;-79
2024/03/10 11:36:38;;;;;;;29.17;18.15;;;12.90;83.90;;;;;;5013183;28;20033;-78
2024/03/10 11:39:06;;;;;;;33.85;18.92;;;13.00;84.10;;;;;;5013272;28;20046;-80
2024/03/10 11:41:33;;;;;;;27.60;18.38;;;13.00;84.10;;;;;;4995669;28;20030;-79
2024/03/10 11:43:59;;;;;;;30.38;18.73;;;12.90;84.60;;;;;;5013046;28;20030;-78
2024/03/10 11:46:26;;;;;;;26.65;17.50;;;12.90;84.20;;;;;;4995263;28;20025;-79
2024/03/10 11:48:56;;;;;;;29.10;17.95;;;12.90;84.80;;;;;;4997072;28;20045;-80
2024/03/10 11:51:28;;;;;;;26.48;16.85;;;12.90;84.20;;;;;;4995165;28;20018;-79
2024/03/10 11:54:03;;;;;;;25.15;16.77;;;13.00;84.30;;;;;;5013053;28;20030;-80
2024/03/10 11:56:29;;;;;;;25.00;17.05;;;12.90;84.20;;;;;;4995557;28;20053;-79
2024/03/10 11:58:58;;;;;;;24.25;17.25;;;13.00;84.20;;;;;;4995200;28;20072;-79
2024/03/10 12:01:26;;;;;;;29.48;17.65;;;13.00;84.20;;;;;;4995302;28;20494;-77
2024/03/10 12:03:53;;;;;;;23.63;17.33;;;13.00;84.20;;;;;;4995006;28;20030;-79
2024/03/10 12:06:19;;;;;;;25.38;16.92;;;13.00;84.10;;;;;;4995069;28;20453;-79
2024/03/10 12:08:45;;;;;;;24.80;16.75;;;13.00;84.00;;;;;;5012824;28;20029;-79
2024/03/10 12:11:12;;;;;;;25.23;17.70;;;13.10;84.00;;;;;;4994883;28;20387;-80
2024/03/10 12:13:50;;;;;;;25.13;16.35;;;13.10;84.00;;;;;;4994717;28;20026;-81
2024/03/10 12:16:15;;;;;;;27.13;17.67;;;13.10;84.10;;;;;;5012532;28;20124;-80
2024/03/10 12:18:42;;;;;;;25.02;17.10;;;13.10;84.10;;;;;;5012441;28;20105;-79
2024/03/10 12:21:18;;;;;;;24.92;17.08;;;13.10;84.20;;;;;;5012877;28;20033;-79
2024/03/10 12:23:46;;;;;;;25.73;17.75;;;13.10;84.20;;;;;;5012355;28;20033;-79
2024/03/10 12:26:14;;;;;;;27.65;17.58;;;13.10;84.20;;;;;;5011015;28;20116;-80
2024/03/10 12:28:41;;;;;;;27.20;17.42;;;13.10;84.10;;;;;;4995250;28;20633;-79
2024/03/10 12:31:13;;;;;;;29.02;17.08;;;13.10;84.10;;;;;;5011771;28;20029;-80
2024/03/10 12:33:46;;;;;;;23.65;17.02;;;13.10;84.10;;;;;;5005392;28;20081;-82
2024/03/10 12:36:14;;;;;;;26.13;17.48;;;13.20;84.00;;;;;;5011523;28;20494;-80
2024/03/10 12:38:40;;;;;;;22.80;16.88;;;13.10;83.90;;;;;;5011405;28;20034;-78
2024/03/10 12:41:07;;;;;;;26.60;16.67;;;13.10;83.90;;;;;;4986836;28;20081;-81
2024/03/10 12:43:33;;;;;;;27.70;18.08;;;13.20;84.00;;;;;;5009408;28;20022;-77
2024/03/10 12:46:01;;;;;;;28.27;17.02;;;13.20;84.00;;;;;;4992742;28;20018;-80
2024/03/10 12:48:27;;;;;;;25.20;17.58;;;13.20;84.10;;;;;;4992937;28;20172;-80
2024/03/10 12:50:54;;;;;;;25.80;17.25;;;13.20;84.10;;;;;;4993161;28;20115;-81
2024/03/10 12:53:21;;;;;;;26.52;16.40;;;13.20;84.10;;;;;;5009973;28;20026;-80
2024/03/10 12:55:47;;;;;;;24.55;17.60;;;13.20;84.10;;;;;;5010358;28;20483;-80